Dallas, South Dakota
Current Conditions -  °F | °C
As of 4:53 PM on Tuesday 25 Nov 2014 (Local Time) from KICR Reporting Station
Overcast Overcast  
Wind Chill: 38°   Ceiling: 6500
Heat Index: 42°   Visibility: 10mi
Dew Point: 26°   Wind: 6mph
Humidity: 53%   Direction: 250°WSW
Pressure: 29.76"   Gusts: NA
Location:  43.24°N, 99.52°W
Report Text: KICR 252253Z AUTO 25005KT 10SM OVC065 06/M03 A2976 RMK AO2 SLP095 T00561033
Loading
Personal Weather Stations






























Interactive Weather Map New forecast layout! Learn more

10-Day Weather Forecast

Advertisements
Track Severe Weather on mobile